createdAt,value
2022-08-25T00:00:14.208Z,0.00
2022-08-25T00:01:14.235Z,0.00
2022-08-25T00:02:14.320Z,0.00
2022-08-25T00:03:14.298Z,0.00
2022-08-25T00:04:14.328Z,0.00
2022-08-25T00:05:14.704Z,0.00
2022-08-25T00:06:14.392Z,0.00
2022-08-25T00:07:14.431Z,0.00
2022-08-25T00:08:14.450Z,0.00
2022-08-25T00:09:14.480Z,0.00
2022-08-25T00:10:14.510Z,0.00
2022-08-25T00:12:14.570Z,0.00
2022-08-25T00:13:14.602Z,0.00
2022-08-25T00:14:14.632Z,0.00
2022-08-25T00:15:14.662Z,0.00
2022-08-25T00:16:14.723Z,0.00
2022-08-25T00:17:14.724Z,0.00
2022-08-25T00:18:19.970Z,0.00
2022-08-25T00:19:14.785Z,0.00
2022-08-25T00:20:14.818Z,0.00
2022-08-25T00:21:14.846Z,0.00
2022-08-25T00:22:14.876Z,0.00
2022-08-25T00:23:14.906Z,0.00
2022-08-25T00:24:14.936Z,0.00
2022-08-25T00:25:14.972Z,0.00
2022-08-25T00:26:14.996Z,0.00
2022-08-25T00:27:15.028Z,0.00
2022-08-25T00:28:15.057Z,0.00
2022-08-25T00:29:15.093Z,0.00
2022-08-25T00:30:15.936Z,0.00
2022-08-25T00:31:15.222Z,0.00
2022-08-25T00:32:15.178Z,0.00
2022-08-25T00:33:15.210Z,0.00
2022-08-25T00:35:57.834Z,0.00
2022-08-25T00:36:58.070Z,0.00
2022-08-25T00:37:58.097Z,0.00
2022-08-25T00:38:57.926Z,0.00
2022-08-25T00:39:58.008Z,0.00
2022-08-25T00:40:57.991Z,0.00
2022-08-25T00:46:58.171Z,0.00
2022-08-25T00:50:58.287Z,0.00
2022-08-25T00:53:58.993Z,0.00
2022-08-25T00:56:58.471Z,0.00
2022-08-25T00:59:00.150Z,0.00
2022-08-25T01:02:58.899Z,0.00
2022-08-25T01:06:59.484Z,0.00
2022-08-25T01:14:59.420Z,0.00
2022-08-25T01:19:59.151Z,0.00
2022-08-25T01:20:59.183Z,0.00
2022-08-25T01:21:59.211Z,0.00
2022-08-25T01:22:59.243Z,0.00
2022-08-25T01:23:59.271Z,0.00
2022-08-25T01:24:59.303Z,0.00
2022-08-25T01:25:59.331Z,0.00
2022-08-25T01:26:59.364Z,0.00
2022-08-25T01:27:59.416Z,0.00
2022-08-25T01:28:59.423Z,0.00
2022-08-25T01:29:59.454Z,0.00
2022-08-25T01:30:59.558Z,0.00
2022-08-25T01:31:59.510Z,0.00
2022-08-25T01:32:59.544Z,0.00
2022-08-25T01:33:59.571Z,0.00
2022-08-25T01:34:59.605Z,0.00
2022-08-25T01:35:59.632Z,0.00
2022-08-25T01:36:59.872Z,0.00
2022-08-25T01:37:59.750Z,0.00
2022-08-25T01:38:59.725Z,0.00
2022-08-25T01:39:59.786Z,0.00
2022-08-25T01:40:59.783Z,0.00
2022-08-25T01:41:59.812Z,0.00
2022-08-25T01:42:59.843Z,0.00
2022-08-25T01:43:59.872Z,0.00
2022-08-25T01:44:59.907Z,0.00
2022-08-25T01:45:59.998Z,0.00
2022-08-25T01:46:59.964Z,0.00
2022-08-25T01:48:00.029Z,0.00
2022-08-25T01:49:03.800Z,0.00
2022-08-25T01:50:00.052Z,0.00
2022-08-25T01:51:00.300Z,0.00
2022-08-25T01:52:00.328Z,0.00
2022-08-25T01:53:00.159Z,0.00
2022-08-25T01:55:00.525Z,0.00
2022-08-25T01:56:00.233Z,0.00
2022-08-25T01:57:00.263Z,0.00
2022-08-25T01:58:00.342Z,0.00
2022-08-25T01:59:00.321Z,0.00
2022-08-25T02:00:00.353Z,0.00
2022-08-25T02:01:00.458Z,0.00
2022-08-25T02:02:00.486Z,0.00
2022-08-25T02:03:00.508Z,0.00
2022-08-25T02:04:00.472Z,0.00
2022-08-25T02:05:00.501Z,0.00
2022-08-25T02:06:00.533Z,0.00
2022-08-25T02:07:00.564Z,0.00
2022-08-25T02:08:00.698Z,0.00
2022-08-25T02:09:00.622Z,0.00
2022-08-25T02:10:03.402Z,0.00
2022-08-25T02:11:00.679Z,0.00
2022-08-25T02:12:00.712Z,0.00
2022-08-25T02:13:00.741Z,0.00
2022-08-25T02:14:00.772Z,0.00
2022-08-25T02:15:00.799Z,0.00
2022-08-25T02:16:00.831Z,0.00
2022-08-25T02:17:00.880Z,0.00
2022-08-25T02:18:00.890Z,0.00
2022-08-25T02:19:00.930Z,0.00
2022-08-25T02:20:00.950Z,0.00
2022-08-25T02:21:00.979Z,0.00
2022-08-25T02:22:01.010Z,0.00
2022-08-25T02:23:01.038Z,0.00
2022-08-25T02:24:01.076Z,0.00
2022-08-25T02:25:01.100Z,0.00
2022-08-25T02:26:01.130Z,0.00
2022-08-25T02:27:01.158Z,0.00
2022-08-25T02:28:01.212Z,0.00
2022-08-25T02:29:01.217Z,0.00
2022-08-25T02:30:01.251Z,0.00
2022-08-25T02:31:01.858Z,0.00
2022-08-25T02:32:01.310Z,0.00
2022-08-25T02:33:01.337Z,0.00
2022-08-25T02:34:01.367Z,0.00
2022-08-25T02:35:01.398Z,0.00
2022-08-25T02:36:01.429Z,0.00
2022-08-25T02:37:01.861Z,0.00
2022-08-25T02:38:01.564Z,0.00
2022-08-25T02:39:01.515Z,0.00
2022-08-25T02:40:01.599Z,0.00
2022-08-25T02:41:01.576Z,0.00
2022-08-25T02:42:01.607Z,0.00
2022-08-25T02:43:01.634Z,0.00
2022-08-25T02:44:01.677Z,0.00
2022-08-25T02:45:01.701Z,0.00
2022-08-25T02:46:01.801Z,0.00
2022-08-25T02:47:01.754Z,0.00
2022-08-25T02:48:01.839Z,0.00
2022-08-25T02:49:01.812Z,0.00
2022-08-25T02:50:01.845Z,0.00
2022-08-25T02:51:01.874Z,0.00
2022-08-25T02:52:01.905Z,0.00
2022-08-25T02:53:01.934Z,0.00
2022-08-25T02:54:01.966Z,0.00
2022-08-25T02:55:01.993Z,0.00
2022-08-25T02:56:02.024Z,0.00
2022-08-25T02:57:02.053Z,0.00
2022-08-25T02:58:02.204Z,0.00
2022-08-25T03:01:28.672Z,0.00
2022-08-25T03:02:28.027Z,0.00
2022-08-25T03:03:30.880Z,0.00
2022-08-25T03:04:28.168Z,0.00
2022-08-25T03:05:28.111Z,0.00
2022-08-25T03:06:31.370Z,0.00
2022-08-25T03:08:45.815Z,0.00
2022-08-25T03:09:45.832Z,0.00
2022-08-25T03:10:48.482Z,0.00
2022-08-25T03:11:45.889Z,0.00
2022-08-25T03:12:45.917Z,0.00
2022-08-25T03:13:45.950Z,0.00
2022-08-25T03:14:45.977Z,0.00
2022-08-25T03:15:50.048Z,0.00
2022-08-25T03:16:46.418Z,0.00
2022-08-25T03:17:46.075Z,0.00
2022-08-25T03:18:46.093Z,0.00
2022-08-25T03:20:46.155Z,0.00
2022-08-25T03:23:46.257Z,0.00
2022-08-25T03:24:46.484Z,0.00
2022-08-25T03:25:46.722Z,0.00
2022-08-25T03:29:47.158Z,0.00
2022-08-25T03:35:46.819Z,0.00
2022-08-25T03:36:47.336Z,0.00
2022-08-25T03:41:47.402Z,0.00
2022-08-25T03:48:46.991Z,0.00
2022-08-25T03:49:47.009Z,0.00
2022-08-25T03:55:47.200Z,0.00
2022-08-25T03:56:47.942Z,0.00
2022-08-25T03:57:48.176Z,0.00
2022-08-25T03:58:47.293Z,0.00
2022-08-25T03:59:47.524Z,0.00
2022-08-25T04:00:47.383Z,0.00
2022-08-25T04:01:52.661Z,0.00
2022-08-25T04:05:47.697Z,0.00
2022-08-25T04:06:47.729Z,0.00
2022-08-25T04:12:47.705Z,0.00
2022-08-25T04:13:48.144Z,0.00
2022-08-25T04:16:55.031Z,0.00
2022-08-25T04:19:48.314Z,0.00
2022-08-25T04:20:48.840Z,0.00
2022-08-25T04:21:48.170Z,0.00
2022-08-25T04:25:48.089Z,0.00
2022-08-25T04:27:48.845Z,0.00
2022-08-25T04:28:48.784Z,0.00
2022-08-25T04:30:52.024Z,5.63
2022-08-25T04:33:52.522Z,5.63
2022-08-25T04:36:51.212Z,5.63
2022-08-25T04:37:48.647Z,11.25
2022-08-25T04:39:49.357Z,11.25
2022-08-25T04:52:48.874Z,22.50
2022-08-25T04:53:48.905Z,28.13
2022-08-25T04:54:48.930Z,28.13
2022-08-25T04:55:48.958Z,28.13
2022-08-25T04:56:48.990Z,28.13
2022-08-25T04:57:49.015Z,33.75
2022-08-25T04:58:49.047Z,33.75
2022-08-25T04:59:49.074Z,33.75
2022-08-25T05:00:49.134Z,33.75
2022-08-25T05:01:49.670Z,39.38
2022-08-25T05:02:49.165Z,39.38
2022-08-25T05:03:49.281Z,39.38
2022-08-25T05:04:49.272Z,39.38
2022-08-25T05:05:49.250Z,45.00
2022-08-25T05:06:49.283Z,45.00
2022-08-25T05:07:49.311Z,45.00
2022-08-25T05:08:49.341Z,45.00
2022-08-25T05:09:49.368Z,50.63
2022-08-25T05:10:49.407Z,50.63
2022-08-25T05:11:49.428Z,50.63
2022-08-25T05:12:49.460Z,56.25
2022-08-25T05:13:51.682Z,56.25
2022-08-25T05:14:49.519Z,56.25
2022-08-25T05:15:49.546Z,56.25
2022-08-25T05:16:49.657Z,61.88
2022-08-25T05:17:53.833Z,61.88
2022-08-25T05:18:49.636Z,61.88
2022-08-25T05:19:49.676Z,67.50
2022-08-25T05:20:49.694Z,67.50
2022-08-25T05:21:49.725Z,67.50
2022-08-25T05:22:49.756Z,67.50
2022-08-25T05:23:49.784Z,73.13
2022-08-25T05:24:49.814Z,73.13
2022-08-25T05:25:49.843Z,73.13
2022-08-25T05:26:49.874Z,73.13
2022-08-25T05:27:49.906Z,78.75
2022-08-25T05:28:49.932Z,78.75
2022-08-25T05:29:49.960Z,78.75
2022-08-25T05:30:49.993Z,78.75
2022-08-25T05:31:51.016Z,78.75
2022-08-25T05:32:50.051Z,84.38
2022-08-25T05:33:50.081Z,84.38
2022-08-25T05:34:50.111Z,84.38
2022-08-25T05:35:50.138Z,84.38
2022-08-25T05:36:50.170Z,90.00
2022-08-25T05:37:50.199Z,123.75
2022-08-25T05:38:50.231Z,180.00
2022-08-25T05:39:50.302Z,213.75
2022-08-25T05:40:50.289Z,163.13
2022-08-25T05:41:50.319Z,101.25
2022-08-25T05:42:50.350Z,112.50
2022-08-25T05:43:50.379Z,129.38
2022-08-25T05:44:50.410Z,140.63
2022-08-25T05:45:50.535Z,163.13
2022-08-25T05:46:50.468Z,168.75
2022-08-25T05:47:50.499Z,151.88
2022-08-25T05:50:50.589Z,118.13
2022-08-25T05:51:50.628Z,129.38
2022-08-25T06:06:53.705Z,180.00
2022-08-25T06:07:51.318Z,163.13
2022-08-25T06:09:51.488Z,151.88
2022-08-25T06:10:51.413Z,135.00
2022-08-25T06:12:51.778Z,202.50
2022-08-25T06:13:51.506Z,230.63
2022-08-25T06:17:52.140Z,461.25
2022-08-25T06:24:51.628Z,286.88
2022-08-25T06:25:51.661Z,298.13
2022-08-25T06:26:51.696Z,264.38
2022-08-25T06:27:51.725Z,135.00
2022-08-25T06:28:51.758Z,191.25
2022-08-25T06:29:53.441Z,241.88
2022-08-25T06:30:51.834Z,281.25
2022-08-25T06:31:51.901Z,185.63
2022-08-25T06:32:51.882Z,135.00
2022-08-25T06:33:51.917Z,135.00
2022-08-25T06:34:51.951Z,135.00
2022-08-25T06:35:51.979Z,135.00
2022-08-25T06:36:52.010Z,135.00
2022-08-25T06:37:52.041Z,135.00
2022-08-25T06:38:52.071Z,140.63
2022-08-25T06:39:52.180Z,140.63
2022-08-25T06:40:52.135Z,151.88
2022-08-25T06:41:52.167Z,236.25
2022-08-25T06:42:52.200Z,303.75
2022-08-25T06:43:56.740Z,286.88
2022-08-25T06:47:52.571Z,208.13
2022-08-25T06:48:52.713Z,438.75
2022-08-25T06:50:52.778Z,669.38
2022-08-25T06:51:56.527Z,911.25
2022-08-25T06:55:40.357Z,1715.63
2022-08-25T06:56:40.369Z,1732.50
2022-08-25T06:57:40.410Z,1839.38
2022-08-25T06:58:40.432Z,1800.00
2022-08-25T06:59:41.590Z,1777.50
2022-08-25T07:00:40.542Z,1833.75
2022-08-25T07:01:44.260Z,1884.38
2022-08-25T07:02:41.314Z,1867.50
2022-08-25T07:03:40.601Z,1878.75
2022-08-25T07:04:40.632Z,1794.38
2022-08-25T07:05:43.900Z,1811.25
2022-08-25T07:06:40.705Z,1833.75
2022-08-25T07:09:03.931Z,1777.50
2022-08-25T07:10:48.101Z,1845.00
2022-08-25T07:11:46.210Z,1783.13
2022-08-25T07:12:46.243Z,1839.38
2022-08-25T07:13:46.280Z,1856.25
2022-08-25T07:14:58.093Z,1828.13
2022-08-25T07:15:46.382Z,1839.38
2022-08-25T07:16:50.369Z,1873.13
2022-08-25T07:17:47.440Z,1850.63
2022-08-25T07:18:46.475Z,1833.75
2022-08-25T07:21:23.069Z,1816.88
2022-08-25T07:22:19.230Z,1777.50
2022-08-25T07:23:19.272Z,1845.00
2022-08-25T07:24:19.310Z,1822.50
2022-08-25T07:25:19.351Z,1788.75
2022-08-25T07:26:37.694Z,1811.25
2022-08-25T07:27:19.426Z,1783.13
2022-08-25T07:28:19.467Z,1788.75
2022-08-25T07:29:19.504Z,1828.13
2022-08-25T07:30:22.893Z,1906.88
2022-08-25T07:31:19.615Z,1845.00
2022-08-25T07:32:19.623Z,1822.50
2022-08-25T07:33:19.665Z,1822.50
2022-08-25T07:34:19.704Z,1743.75
2022-08-25T07:35:19.747Z,1681.88
2022-08-25T07:36:19.786Z,1726.88
2022-08-25T07:37:50.005Z,1788.75
2022-08-25T07:38:20.879Z,1800.00
2022-08-25T07:40:20.077Z,1805.63
2022-08-25T07:41:20.004Z,1839.38
2022-08-25T07:42:20.024Z,1805.63
2022-08-25T07:43:20.067Z,1766.25
2022-08-25T07:44:20.308Z,1777.50
2022-08-25T07:45:20.757Z,1749.38
2022-08-25T07:46:20.612Z,1833.75
2022-08-25T07:47:23.153Z,1760.63
2022-08-25T07:48:20.265Z,1732.50
2022-08-25T07:49:23.164Z,1721.25
2022-08-25T07:50:20.349Z,1738.13
2022-08-25T07:51:20.413Z,1822.50
2022-08-25T07:52:20.428Z,1800.00
2022-08-25T07:53:22.303Z,1906.88
2022-08-25T07:55:03.082Z,1738.13
2022-08-25T08:21:52.584Z,1597.50
2022-08-25T08:22:52.627Z,1715.63
2022-08-25T08:23:58.047Z,1743.75
2022-08-25T08:24:56.352Z,1715.63
2022-08-25T08:25:52.753Z,1704.38
2022-08-25T08:26:58.617Z,1653.75
2022-08-25T08:27:59.366Z,1693.13
2022-08-25T08:28:52.880Z,1620.00
2022-08-25T08:29:53.072Z,1608.75
2022-08-25T08:30:53.999Z,1648.13
2022-08-25T08:31:53.045Z,1620.00
2022-08-25T08:33:09.132Z,1575.00
2022-08-25T08:33:53.091Z,1591.88
2022-08-25T08:34:53.136Z,1603.13
2022-08-25T08:35:53.176Z,1541.25
2022-08-25T08:36:53.244Z,1530.00
2022-08-25T08:37:53.921Z,1614.38
2022-08-25T08:38:53.305Z,1631.25
2022-08-25T09:44:19.725Z,348.75
2022-08-25T09:45:19.769Z,348.75
2022-08-25T09:46:20.843Z,348.75
2022-08-25T09:47:19.850Z,343.13
2022-08-25T09:48:19.901Z,343.13
2022-08-25T09:49:19.932Z,348.75
2022-08-25T09:50:19.969Z,348.75
2022-08-25T09:51:20.012Z,348.75
2022-08-25T09:52:20.063Z,343.13
2022-08-25T09:53:21.819Z,348.75
2022-08-25T09:54:20.133Z,348.75
2022-08-25T09:55:20.178Z,354.38
2022-08-25T09:56:20.213Z,348.75
2022-08-25T09:57:20.254Z,348.75
2022-08-25T09:58:20.291Z,348.75
2022-08-25T09:59:20.332Z,354.38
2022-08-25T10:00:20.371Z,360.00
2022-08-25T10:03:06.673Z,405.00
2022-08-25T10:07:03.172Z,354.38
2022-08-25T10:08:03.212Z,343.13
2022-08-25T10:09:03.248Z,337.50
2022-08-25T10:10:03.291Z,326.25
2022-08-25T10:11:03.330Z,315.00
2022-08-25T10:12:03.372Z,303.75
2022-08-25T10:13:03.598Z,303.75
2022-08-25T10:14:03.450Z,292.50
2022-08-25T10:15:03.488Z,286.88
2022-08-25T10:16:03.544Z,281.25
2022-08-25T10:17:03.570Z,281.25
2022-08-25T10:18:03.612Z,281.25
2022-08-25T10:19:03.659Z,275.63
2022-08-25T10:20:03.905Z,270.00
2022-08-25T10:21:03.732Z,270.00
2022-08-25T10:23:03.956Z,264.38
2022-08-25T10:24:03.846Z,258.75
2022-08-25T10:25:04.754Z,264.38
2022-08-25T10:26:07.357Z,264.38
2022-08-25T10:41:48.384Z,225.00
2022-08-25T10:42:48.426Z,225.00
2022-08-25T10:45:48.626Z,219.38
2022-08-25T10:46:48.585Z,219.38
2022-08-25T10:47:48.619Z,219.38
2022-08-25T10:48:48.661Z,213.75
2022-08-25T10:49:49.936Z,213.75
2022-08-25T10:50:49.192Z,213.75
2022-08-25T10:51:51.069Z,219.38
2022-08-25T11:05:49.321Z,208.13
2022-08-25T11:06:52.701Z,202.50
2022-08-25T11:07:49.399Z,196.88
2022-08-25T11:08:49.440Z,202.50
2022-08-25T11:09:49.478Z,196.88
2022-08-25T11:10:49.519Z,191.25
2022-08-25T11:11:49.553Z,185.63
2022-08-25T11:12:49.595Z,180.00
2022-08-25T11:13:49.632Z,174.38
2022-08-25T11:14:49.687Z,174.38
2022-08-25T11:16:13.297Z,174.38
2022-08-25T11:16:49.802Z,174.38
2022-08-25T11:17:50.112Z,174.38
2022-08-25T11:18:49.827Z,174.38
2022-08-25T11:19:49.863Z,174.38
2022-08-25T11:20:49.903Z,174.38
2022-08-25T11:21:49.939Z,174.38
2022-08-25T11:22:49.980Z,174.38
2022-08-25T11:23:50.016Z,174.38
2022-08-25T11:24:50.072Z,174.38
2022-08-25T11:25:50.092Z,174.38
2022-08-25T11:26:50.133Z,174.38
2022-08-25T11:27:50.168Z,185.63
2022-08-25T11:35:08.082Z,151.88
2022-08-25T11:36:08.082Z,151.88
2022-08-25T11:37:11.249Z,151.88
2022-08-25T11:38:08.236Z,151.88
2022-08-25T11:39:08.193Z,151.88
2022-08-25T11:40:08.754Z,146.25
2022-08-25T11:41:11.063Z,151.88
2022-08-25T11:42:08.305Z,151.88
2022-08-25T11:43:08.455Z,151.88
2022-08-25T11:44:08.582Z,146.25
2022-08-25T11:45:08.414Z,146.25
2022-08-25T11:46:08.720Z,140.63
2022-08-25T11:47:14.318Z,140.63
2022-08-25T11:48:08.527Z,140.63
2022-08-25T11:49:08.563Z,146.25
2022-08-25T11:50:08.694Z,140.63
2022-08-25T11:51:09.396Z,140.63
2022-08-25T11:52:08.691Z,140.63
2022-08-25T11:53:11.358Z,140.63
2022-08-25T11:54:08.751Z,140.63
2022-08-25T11:55:09.303Z,146.25
2022-08-25T11:56:08.857Z,146.25
2022-08-25T11:57:08.858Z,140.63
2022-08-25T11:58:09.149Z,140.63
2022-08-25T11:59:08.933Z,140.63
2022-08-25T12:00:08.969Z,140.63
2022-08-25T12:01:09.004Z,140.63
2022-08-25T12:02:09.042Z,140.63
2022-08-25T12:03:09.079Z,140.63
2022-08-25T12:04:09.168Z,135.00
2022-08-25T12:05:09.304Z,135.00
2022-08-25T12:06:09.188Z,140.63
2022-08-25T12:07:09.224Z,140.63
2022-08-25T12:08:09.260Z,140.63
2022-08-25T12:09:09.296Z,140.63
2022-08-25T12:10:09.536Z,140.63
2022-08-25T12:11:11.200Z,140.63
2022-08-25T12:12:09.408Z,135.00
2022-08-25T12:13:10.545Z,135.00
2022-08-25T12:14:09.479Z,135.00
2022-08-25T12:15:09.513Z,135.00
2022-08-25T12:16:09.553Z,135.00
2022-08-25T12:17:12.024Z,135.00
2022-08-25T12:18:10.088Z,140.63
2022-08-25T12:19:09.658Z,140.63
2022-08-25T12:20:09.699Z,140.63
2022-08-25T12:21:09.733Z,140.63
2022-08-25T12:22:09.771Z,140.63
2022-08-25T12:23:09.804Z,140.63
2022-08-25T12:24:09.877Z,140.63
2022-08-25T12:25:09.874Z,140.63
2022-08-25T12:26:10.992Z,140.63
2022-08-25T12:27:09.947Z,135.00
2022-08-25T12:28:09.986Z,135.00
2022-08-25T12:29:10.020Z,135.00
2022-08-25T12:30:13.256Z,140.63
2022-08-25T12:31:10.169Z,140.63
2022-08-25T12:32:10.130Z,140.63
2022-08-25T12:33:10.166Z,140.63
2022-08-25T12:34:10.203Z,140.63
2022-08-25T12:35:10.238Z,140.63
2022-08-25T12:36:11.218Z,140.63
2022-08-25T12:37:10.309Z,140.63
2022-08-25T12:38:10.348Z,140.63
2022-08-25T12:39:10.382Z,146.25
2022-08-25T12:40:10.456Z,146.25
2022-08-25T12:41:10.454Z,146.25
2022-08-25T12:42:10.493Z,146.25
2022-08-25T12:43:10.525Z,146.25
2022-08-25T12:44:10.564Z,146.25
2022-08-25T12:45:10.597Z,146.25
2022-08-25T12:46:10.678Z,146.25
2022-08-25T12:47:10.674Z,146.25
2022-08-25T12:48:10.707Z,146.25
2022-08-25T12:49:10.769Z,146.25
2022-08-25T12:50:10.779Z,146.25
2022-08-25T12:51:10.814Z,140.63
2022-08-25T12:52:10.851Z,140.63
2022-08-25T12:53:10.884Z,135.00
2022-08-25T12:54:10.922Z,129.38
2022-08-25T12:55:10.957Z,129.38
2022-08-25T12:56:10.992Z,129.38
2022-08-25T12:57:11.027Z,129.38
2022-08-25T12:58:11.064Z,129.38
2022-08-25T12:59:11.098Z,129.38
2022-08-25T13:00:11.137Z,129.38
2022-08-25T13:01:14.037Z,123.75
2022-08-25T13:02:11.320Z,123.75
2022-08-25T13:03:11.792Z,123.75
2022-08-25T13:04:11.280Z,123.75
2022-08-25T13:05:11.313Z,123.75
2022-08-25T13:06:11.351Z,123.75
2022-08-25T13:07:11.384Z,123.75
2022-08-25T13:08:15.098Z,123.75
2022-08-25T13:09:11.468Z,123.75
2022-08-25T13:10:11.495Z,123.75
2022-08-25T13:11:11.533Z,118.13
2022-08-25T13:12:11.568Z,118.13
2022-08-25T13:13:11.602Z,118.13
2022-08-25T13:14:11.637Z,118.13
2022-08-25T13:15:11.671Z,118.13
2022-08-25T13:16:11.769Z,118.13
2022-08-25T13:17:11.746Z,118.13
2022-08-25T13:18:11.782Z,118.13
2022-08-25T13:19:11.818Z,118.13
2022-08-25T13:20:11.852Z,118.13
2022-08-25T13:21:11.887Z,118.13
2022-08-25T13:22:15.910Z,118.13
2022-08-25T13:23:11.961Z,118.13
2022-08-25T13:24:11.996Z,118.13
2022-08-25T13:25:12.034Z,118.13
2022-08-25T13:26:12.068Z,118.13
2022-08-25T13:27:12.102Z,118.13
2022-08-25T13:28:12.139Z,118.13
2022-08-25T13:29:12.174Z,118.13
2022-08-25T13:30:12.212Z,112.50
2022-08-25T13:31:12.244Z,112.50
2022-08-25T13:32:12.735Z,112.50
2022-08-25T13:33:12.317Z,112.50
2022-08-25T13:34:12.354Z,112.50
2022-08-25T13:35:12.387Z,112.50
2022-08-25T13:36:12.425Z,112.50
2022-08-25T13:37:12.459Z,118.13
2022-08-25T13:38:12.495Z,118.13
2022-08-25T13:39:12.530Z,118.13
2022-08-25T13:40:12.614Z,118.13
2022-08-25T13:41:12.606Z,118.13
2022-08-25T13:42:12.640Z,118.13
2022-08-25T13:43:12.674Z,118.13
2022-08-25T13:44:13.195Z,118.13
2022-08-25T13:45:12.776Z,118.13
2022-08-25T13:46:12.783Z,118.13
2022-08-25T13:47:12.816Z,118.13
2022-08-25T13:48:22.714Z,123.75
2022-08-25T13:49:12.888Z,123.75
2022-08-25T13:50:12.925Z,123.75
2022-08-25T13:51:12.959Z,123.75
2022-08-25T13:52:12.998Z,123.75
2022-08-25T13:53:13.035Z,118.13
2022-08-25T13:54:13.068Z,118.13
2022-08-25T13:55:13.102Z,118.13
2022-08-25T13:56:13.180Z,118.13
2022-08-25T13:57:13.173Z,118.13
2022-08-25T13:58:14.337Z,118.13
2022-08-25T13:59:13.244Z,118.13
2022-08-25T14:00:13.283Z,118.13
2022-08-25T14:01:22.164Z,118.13
2022-08-25T14:02:15.264Z,118.13
2022-08-25T14:03:13.449Z,118.13
2022-08-25T14:04:13.425Z,118.13
2022-08-25T14:05:13.461Z,118.13
2022-08-25T14:06:13.497Z,118.13
2022-08-25T14:07:13.531Z,112.50
2022-08-25T14:08:25.280Z,112.50
2022-08-25T14:09:13.600Z,112.50
2022-08-25T14:10:13.638Z,112.50
2022-08-25T14:11:15.054Z,112.50
2022-08-25T14:12:13.715Z,112.50
2022-08-25T14:13:13.743Z,112.50
2022-08-25T14:14:13.781Z,112.50
2022-08-25T14:15:13.813Z,112.50
2022-08-25T14:16:13.899Z,112.50
2022-08-25T14:17:35.367Z,112.50
2022-08-25T14:18:14.229Z,112.50
2022-08-25T14:19:19.360Z,112.50
2022-08-25T14:20:13.997Z,112.50
2022-08-25T14:21:14.029Z,112.50
2022-08-25T14:22:14.067Z,112.50
2022-08-25T14:23:18.756Z,112.50
2022-08-25T14:24:14.138Z,106.88
2022-08-25T14:25:14.170Z,106.88
2022-08-25T14:26:14.209Z,106.88
2022-08-25T14:27:14.241Z,106.88
2022-08-25T14:28:14.277Z,106.88
2022-08-25T14:29:14.311Z,106.88
2022-08-25T14:30:14.355Z,106.88
2022-08-25T14:31:14.449Z,106.88
2022-08-25T14:32:14.420Z,106.88
2022-08-25T14:33:14.655Z,106.88
2022-08-25T14:34:14.491Z,106.88
2022-08-25T14:35:17.521Z,106.88
2022-08-25T14:36:14.562Z,106.88
2022-08-25T14:37:15.555Z,112.50
2022-08-25T14:38:14.637Z,112.50
2022-08-25T14:39:14.667Z,112.50
2022-08-25T14:40:14.749Z,112.50
2022-08-25T14:41:14.771Z,112.50
2022-08-25T14:42:14.776Z,118.13
2022-08-25T14:43:14.809Z,118.13
2022-08-25T14:44:14.846Z,118.13
2022-08-25T14:45:14.879Z,118.13
2022-08-25T14:46:15.564Z,118.13
2022-08-25T14:47:14.950Z,118.13
2022-08-25T14:48:14.988Z,118.13
2022-08-25T14:49:15.022Z,118.13
2022-08-25T14:50:15.060Z,118.13
2022-08-25T14:51:15.094Z,118.13
2022-08-25T14:52:15.142Z,118.13
2022-08-25T14:53:15.164Z,118.13
2022-08-25T14:54:15.200Z,118.13
2022-08-25T14:55:20.591Z,112.50
2022-08-25T14:57:40.383Z,112.50
2022-08-25T14:58:51.186Z,112.50
2022-08-25T14:59:43.080Z,118.13
2022-08-25T15:00:40.558Z,118.13
2022-08-25T15:01:40.526Z,118.13
2022-08-25T15:02:40.562Z,118.13
2022-08-25T15:03:40.630Z,118.13
2022-08-25T15:04:42.475Z,118.13
2022-08-25T15:05:40.669Z,118.13
2022-08-25T15:06:40.703Z,118.13
2022-08-25T15:07:40.738Z,118.13
2022-08-25T15:08:40.783Z,112.50
2022-08-25T15:09:40.815Z,112.50
2022-08-25T15:10:40.897Z,112.50
2022-08-25T15:11:41.622Z,106.88
2022-08-25T15:12:47.339Z,106.88
2022-08-25T15:13:41.747Z,101.25
2022-08-25T15:14:40.984Z,101.25
2022-08-25T15:15:52.728Z,101.25
2022-08-25T15:16:41.062Z,101.25
2022-08-25T15:17:41.089Z,101.25
2022-08-25T15:18:41.128Z,101.25
2022-08-25T15:19:41.166Z,101.25
2022-08-25T15:20:41.198Z,101.25
2022-08-25T15:21:41.232Z,101.25
2022-08-25T15:22:41.785Z,101.25
2022-08-25T15:23:41.312Z,101.25
2022-08-25T15:24:41.338Z,101.25
2022-08-25T15:25:41.372Z,101.25
2022-08-25T15:26:41.492Z,101.25
2022-08-25T15:27:41.445Z,101.25
2022-08-25T15:28:41.485Z,101.25
2022-08-25T15:29:41.514Z,101.25
2022-08-25T15:30:44.886Z,95.63
2022-08-25T15:31:41.612Z,95.63
2022-08-25T15:32:41.623Z,95.63
2022-08-25T15:33:41.655Z,95.63
2022-08-25T15:34:41.693Z,95.63
2022-08-25T15:35:41.728Z,95.63
2022-08-25T15:36:41.767Z,95.63
2022-08-25T15:37:41.796Z,95.63
2022-08-25T15:38:41.834Z,90.00
2022-08-25T15:39:41.867Z,90.00
2022-08-25T15:40:41.915Z,90.00
2022-08-25T15:41:42.621Z,90.00
2022-08-25T15:42:42.833Z,90.00
2022-08-25T15:43:42.009Z,95.63
2022-08-25T15:44:42.045Z,90.00
2022-08-25T15:45:42.078Z,90.00
2022-08-25T15:46:42.207Z,90.00
2022-08-25T15:47:42.149Z,90.00
2022-08-25T15:48:42.184Z,90.00
2022-08-25T15:49:42.220Z,90.00
2022-08-25T15:50:42.257Z,84.38
2022-08-25T15:51:42.291Z,84.38
2022-08-25T15:52:47.653Z,84.38
2022-08-25T15:53:42.359Z,84.38
2022-08-25T15:54:42.399Z,84.38
2022-08-25T15:55:42.433Z,84.38
2022-08-25T15:56:42.466Z,84.38
2022-08-25T15:57:42.499Z,84.38
2022-08-25T15:58:49.792Z,84.38
2022-08-25T15:59:42.572Z,84.38
2022-08-25T16:00:42.660Z,84.38
2022-08-25T16:01:42.721Z,84.38
2022-08-25T16:02:42.677Z,84.38
2022-08-25T16:03:42.708Z,84.38
2022-08-25T16:04:42.772Z,84.38
2022-08-25T16:05:47.987Z,84.38
2022-08-25T16:06:42.814Z,84.38
2022-08-25T16:07:42.861Z,84.38
2022-08-25T16:08:42.881Z,84.38
2022-08-25T16:09:42.915Z,78.75
2022-08-25T16:10:42.953Z,78.75
2022-08-25T16:11:42.986Z,78.75
2022-08-25T16:12:43.021Z,78.75
2022-08-25T16:13:43.067Z,78.75
2022-08-25T16:14:43.093Z,78.75
2022-08-25T16:15:43.128Z,78.75
2022-08-25T16:16:43.233Z,78.75
2022-08-25T16:17:45.982Z,78.75
2022-08-25T16:18:43.232Z,78.75
2022-08-25T16:19:43.266Z,78.75
2022-08-25T16:20:43.300Z,78.75
2022-08-25T16:21:47.458Z,78.75
2022-08-25T16:22:43.372Z,78.75
2022-08-25T16:23:43.404Z,78.75
2022-08-25T16:24:43.441Z,78.75
2022-08-25T16:25:43.474Z,78.75
2022-08-25T16:26:48.174Z,78.75
2022-08-25T16:27:43.543Z,78.75
2022-08-25T16:28:43.821Z,78.75
2022-08-25T16:29:43.611Z,73.13
2022-08-25T16:30:43.649Z,73.13
2022-08-25T16:31:43.787Z,73.13
2022-08-25T16:32:43.719Z,73.13
2022-08-25T16:33:43.753Z,73.13
2022-08-25T16:34:44.313Z,73.13
2022-08-25T16:35:43.823Z,73.13
2022-08-25T16:36:43.857Z,73.13
2022-08-25T16:37:43.945Z,73.13
2022-08-25T16:38:48.834Z,73.13
2022-08-25T16:39:43.962Z,73.13
2022-08-25T16:40:43.996Z,73.13
2022-08-25T16:41:44.030Z,73.13
2022-08-25T16:42:44.065Z,73.13
2022-08-25T16:43:44.101Z,73.13
2022-08-25T16:44:44.136Z,73.13
2022-08-25T16:45:44.168Z,73.13
2022-08-25T16:46:44.492Z,73.13
2022-08-25T16:47:44.237Z,73.13
2022-08-25T16:48:45.689Z,73.13
2022-08-25T16:49:44.306Z,73.13
2022-08-25T16:50:44.344Z,73.13
2022-08-25T16:51:44.374Z,73.13
2022-08-25T16:52:44.609Z,73.13
2022-08-25T16:53:44.830Z,67.50
2022-08-25T16:54:44.481Z,67.50
2022-08-25T16:55:44.512Z,67.50
2022-08-25T16:56:44.553Z,67.50
2022-08-25T16:57:44.582Z,67.50
2022-08-25T16:58:44.617Z,67.50
2022-08-25T16:59:44.652Z,67.50
2022-08-25T17:00:44.957Z,67.50
2022-08-25T17:01:44.732Z,67.50
2022-08-25T17:02:44.786Z,67.50
2022-08-25T17:03:44.789Z,67.50
2022-08-25T17:04:44.823Z,67.50
2022-08-25T17:05:44.855Z,61.88
2022-08-25T17:06:51.965Z,61.88
2022-08-25T17:07:44.927Z,61.88
2022-08-25T17:08:44.963Z,61.88
2022-08-25T17:09:44.995Z,61.88
2022-08-25T17:10:45.034Z,61.88
2022-08-25T17:11:45.066Z,61.88
2022-08-25T17:12:45.098Z,61.88
2022-08-25T17:13:45.131Z,61.88